Archival Weather

Snohomish County (Paine Fld)

Everett, Washington (KPAE)

Report from: Sunday, October 29, 2023 6:53 AM PDT
Current time: Monday, June 24, 2024 4:00 AM PDT

Current weather – Weather history – Daily summaries
Weather forecast

Temperature1.7°C (35.1°F)
Dew point-0.6°C (30.9°F)
Winds Calm
Visibility10 mi. (16.1 km)
Clouds Sky clear
Altimeter30.48 in.Hg (1032 mB)
Relative humidity85 %
Density altitude-2,193 ft. (-668 m)
Sea-level pressure103.3 kPa (1033 mB, 30.50 in.Hg)
Remarks Automated weather observing station with precipitation discriminator
Flight conditions Visual Meteorological Conditions
Raw dataKPAE 291353Z 00000KT 10SM CLR 02/M01 A3048 RMK AO2 SLP328 T00171006
An error has occurred. This application may no longer respond until reloaded. Reload 🗙